Time;durP1;ratioP1;P1;durP2;ratioP2;P2;SDS_P1;SDS_P2;PMS_P1;PMS_P2;Temp;Humidity;BMP_temperature;BMP_pressure;BME280_temperature;BME280_humidity;BME280_pressure;Samples;Min_cycle;Max_cycle;Signal;HPM_P1;HPM_P2
2023/06/19 00:04:10;;;;;;;8.93;5.70;;;;;;;24.88;38.68;99462.91;10387601;28;20232;-67
2023/06/19 00:09:13;;;;;;;8.57;5.65;;;;;;;25.68;38.13;99468.88;10385858;28;20231;-67
2023/06/19 00:14:14;;;;;;;5.90;4.80;;;;;;;24.18;40.33;99491.31;10393215;28;20250;-66
2023/06/19 00:19:17;;;;;;;5.95;4.10;;;;;;;23.01;42.22;99492.50;10392785;28;20235;-67
2023/06/19 00:24:19;;;;;;;3.80;3.35;;;;;;;23.34;41.32;99501.22;10392551;28;20233;-68
2023/06/19 00:29:21;;;;;;;6.55;3.50;;;;;;;23.80;41.20;99523.75;10387917;28;20220;-67
2023/06/19 00:34:25;;;;;;;4.32;3.33;;;;;;;23.43;42.02;99514.00;10394486;28;20241;-67
2023/06/19 00:39:27;;;;;;;4.13;3.67;;;;;;;24.32;40.73;99535.25;10394097;28;20319;-68
2023/06/19 00:44:29;;;;;;;5.28;3.55;;;;;;;25.01;39.48;99570.88;10395127;28;20643;-68
2023/06/19 00:49:31;;;;;;;3.15;2.85;;;;;;;25.66;38.82;99580.69;10392359;28;20798;-67
2023/06/19 00:54:33;;;;;;;4.10;2.90;;;;;;;24.90;39.99;99611.19;10390169;28;20959;-68
2023/06/19 00:59:35;;;;;;;3.15;2.13;;;;;;;24.07;41.65;99600.94;10388331;28;20238;-67
2023/06/19 01:04:37;;;;;;;2.05;1.83;;;;;;;24.33;42.67;99593.50;10389948;28;20249;-67
2023/06/19 01:09:56;;;;;;;3.40;2.20;;;;;;;24.53;42.98;99600.75;10389566;28;20316;-67
2023/06/19 01:15:03;;;;;;;3.88;1.90;;;;;;;23.58;45.74;99605.16;10382251;28;20204;-66
2023/06/19 01:20:10;;;;;;;3.33;2.10;;;;;;;23.34;46.11;99589.38;10391119;28;20323;-66
2023/06/19 01:25:15;;;;;;;3.30;2.40;;;;;;;23.14;47.84;99529.34;10383562;28;20894;-66
2023/06/19 01:30:17;;;;;;;2.25;1.83;;;;;;;23.69;47.28;99551.38;10384838;28;20749;-67
2023/06/19 01:35:23;;;;;;;2.90;2.60;;;;;;;22.55;49.28;99547.06;10384383;28;20225;-67
2023/06/19 01:40:25;;;;;;;2.80;2.60;;;;;;;22.65;49.48;99534.25;10391272;28;20611;-67
2023/06/19 01:45:29;;;;;;;2.85;2.50;;;;;;;23.09;49.13;99535.63;10386047;28;20240;-67
2023/06/19 01:50:30;;;;;;;4.25;2.47;;;;;;;22.73;49.09;99519.25;10383426;28;20228;-67
2023/06/19 01:55:32;;;;;;;5.60;3.28;;;;;;;22.53;50.57;99531.78;10387303;28;20200;-68
2023/06/19 02:00:37;;;;;;;6.28;3.42;;;;;;;21.21;52.77;99511.03;10378095;28;20691;-65
2023/06/19 02:05:39;;;;;;;4.55;3.33;;;;;;;21.16;52.61;99533.59;10380940;28;20709;-67
2023/06/19 02:10:41;;;;;;;4.80;3.42;;;;;;;22.13;50.81;99530.59;10390162;28;20232;-67
2023/06/19 02:15:43;;;;;;;5.07;3.28;;;;;;;21.65;52.08;99546.16;10391886;28;20209;-66
2023/06/19 02:20:45;;;;;;;4.10;3.63;;;;;;;22.07;51.35;99548.00;10390220;28;20334;-68
2023/06/19 02:25:46;;;;;;;6.40;3.90;;;;;;;22.74;50.19;99547.34;10384910;28;20229;-67
2023/06/19 02:30:48;;;;;;;4.63;3.92;;;;;;;22.26;49.82;99589.19;10387111;28;20351;-66
2023/06/19 02:35:49;;;;;;;4.63;3.97;;;;;;;22.65;49.25;99566.16;10380560;28;20205;-67
2023/06/19 02:40:51;;;;;;;6.38;4.40;;;;;;;23.36;47.95;99561.78;10389722;28;20289;-66
2023/06/19 02:45:53;;;;;;;5.35;4.53;;;;;;;24.09;46.62;99577.72;10393062;28;20326;-67
2023/06/19 02:50:55;;;;;;;5.28;4.25;;;;;;;23.56;47.90;99591.78;10389933;28;20327;-67
2023/06/19 02:55:56;;;;;;;6.10;3.90;;;;;;;24.05;46.46;99598.50;10386387;28;20216;-66
2023/06/19 03:00:58;;;;;;;7.75;4.60;;;;;;;23.80;47.25;99602.97;10389360;28;20327;-67
2023/06/19 03:06:00;;;;;;;5.57;4.30;;;;;;;23.95;46.66;99610.28;10384815;28;20663;-66
2023/06/19 03:11:06;;;;;;;7.50;4.68;;;;;;;24.50;45.29;99615.00;10386922;28;20235;-66
2023/06/19 03:16:07;;;;;;;8.73;4.68;;;;;;;24.03;45.92;99632.69;10380525;28;20324;-66
2023/06/19 03:21:09;;;;;;;5.97;5.05;;;;;;;23.20;47.54;99624.59;10379670;28;20286;-65
2023/06/19 03:26:12;;;;;;;6.13;5.15;;;;;;;25.11;44.86;99591.88;10384340;28;20615;-66
2023/06/19 03:31:14;;;;;;;6.10;4.90;;;;;;;24.25;45.50;99619.50;10385869;28;20416;-66
2023/06/19 03:36:16;;;;;;;7.05;4.82;;;;;;;24.00;46.13;99632.16;10386283;28;20201;-66
2023/06/19 03:41:18;;;;;;;6.35;4.43;;;;;;;24.14;45.55;99613.22;10386807;28;20743;-67
2023/06/19 03:46:19;;;;;;;6.60;5.20;;;;;;;23.03;47.35;99629.47;10381762;28;20231;-65
2023/06/19 03:51:21;;;;;;;4.75;4.25;;;;;;;24.31;45.87;99587.47;10392653;28;20251;-67
2023/06/19 03:56:23;;;;;;;6.53;5.00;;;;;;;24.04;45.99;99596.88;10387495;28;20644;-66
2023/06/19 04:01:24;;;;;;;5.75;5.15;;;;;;;23.70;46.73;99640.41;10389723;23;20233;-89
2023/06/19 04:06:26;;;;;;;6.40;4.90;;;;;;;21.74;50.36;99650.75;10343778;28;20237;-89
2023/06/19 04:11:28;;;;;;;5.88;5.18;;;;;;;22.68;48.07;99647.41;10339100;28;20216;-88
2023/06/19 04:16:30;;;;;;;5.40;4.72;;;;;;;24.00;46.32;99617.63;10341308;28;20269;-89
2023/06/19 04:21:32;;;;;;;5.32;4.78;;;;;;;23.65;47.36;99599.44;10345216;28;20238;-89
2023/06/19 04:26:33;;;;;;;6.88;4.78;;;;;;;21.97;50.00;99629.69;10354707;28;20276;-87
2023/06/19 04:31:40;;;;;;;5.70;4.32;;;;;;;23.38;47.55;99611.47;10338091;28;20214;-88
2023/06/19 04:36:44;;;;;;;5.05;4.55;;;;;;;23.30;47.14;99622.94;10355701;28;20213;-89
2023/06/19 04:41:46;;;;;;;5.57;4.93;;;;;;;23.82;46.54;99597.22;10340241;28;20206;-89
2023/06/19 04:46:48;;;;;;;4.82;4.40;;;;;;;23.43;47.39;99606.84;10364253;28;20232;-89
2023/06/19 04:51:49;;;;;;;5.15;4.57;;;;;;;24.12;46.12;99593.56;10338361;28;20283;-90
2023/06/19 04:56:53;;;;;;;4.75;4.25;;;;;;;24.55;45.22;99596.63;10340266;28;20458;-89
2023/06/19 05:01:55;;;;;;;5.38;4.75;;;;;;;23.57;46.76;99626.19;10342074;28;20715;-89
2023/06/19 05:06:56;;;;;;;5.25;4.43;;;;;;;23.69;47.08;99597.81;10339075;28;20236;-89
2023/06/19 05:11:58;;;;;;;5.78;4.35;;;;;;;23.70;46.71;99619.38;10353900;28;20703;-89
2023/06/19 05:17:00;;;;;;;5.97;4.45;;;;;;;24.88;45.32;99598.88;10344104;28;20769;-89
2023/06/19 05:22:02;;;;;;;5.88;4.90;;;;;;;24.40;46.43;99626.81;10359425;28;20240;-89
2023/06/19 05:27:04;;;;;;;6.10;5.00;;;;;;;23.84;47.52;99618.78;10334141;28;20714;-89
2023/06/19 05:32:06;;;;;;;5.55;4.72;;;;;;;22.93;49.54;99630.28;10331692;28;20288;-88
2023/06/19 05:37:08;;;;;;;5.93;4.93;;;;;;;24.64;46.91;99583.16;10335252;28;20205;-89
2023/06/19 05:42:10;;;;;;;5.88;4.93;;;;;;;24.43;46.68;99600.78;10331878;28;20316;-89
2023/06/19 05:47:11;;;;;;;6.05;4.53;;;;;;;23.92;47.60;99616.31;10358018;28;20283;-90
2023/06/19 05:52:13;;;;;;;6.40;4.28;;;;;;;24.40;47.65;99604.13;10356734;28;20434;-90
2023/06/19 05:57:20;;;;;;;4.80;4.40;;;;;;;24.21;47.51;99601.19;10354294;28;20755;-87
2023/06/19 06:02:22;;;;;;;8.68;4.40;;;;;;;25.16;46.36;99582.81;10355908;28;20467;-90
2023/06/19 06:07:27;;;;;;;4.68;3.88;;;;;;;25.17;45.73;99618.09;10347149;28;20636;-90
2023/06/19 06:12:29;;;;;;;4.13;3.80;;;;;;;25.12;45.76;99615.41;10347699;28;20229;-89
2023/06/19 06:17:31;;;;;;;6.03;3.70;;;;;;;25.05;46.25;99610.28;10343403;28;20317;-90
2023/06/19 06:22:32;;;;;;;3.58;3.28;;;;;;;24.90;46.08;99626.81;10353662;28;20438;-90
2023/06/19 06:27:34;;;;;;;4.65;3.45;;;;;;;25.11;45.94;99611.03;10358450;28;20240;-90
2023/06/19 06:32:36;;;;;;;3.80;3.42;;;;;;;24.15;46.79;99636.75;10356751;28;20236;-90
2023/06/19 06:37:38;;;;;;;6.18;3.40;;;;;;;23.89;46.91;99659.78;10337401;28;20671;-89
2023/06/19 06:42:41;;;;;;;3.33;2.92;;;;;;;22.89;48.65;99667.38;10339219;28;20226;-88
2023/06/19 06:47:47;;;;;;;4.18;3.30;;;;;;;23.61;48.08;99672.91;10337924;28;20596;-90
2023/06/19 06:52:49;;;;;;;3.35;3.05;;;;;;;24.63;45.93;99638.16;10352929;28;20225;-90
2023/06/19 06:57:51;;;;;;;3.70;3.30;;;;;;;23.72;47.29;99674.56;10358390;28;20339;-90
2023/06/19 07:02:53;;;;;;;4.20;3.78;;;;;;;25.35;44.70;99648.66;10333036;28;20295;-93
2023/06/19 07:07:55;;;;;;;6.82;3.30;;;;;;;25.69;45.07;99645.03;10370465;28;20241;-95
2023/06/19 07:13:02;;;;;;;4.43;3.90;;;;;;;24.36;46.73;99696.84;10414374;28;20339;-95
2023/06/19 07:18:07;;;;;;;4.10;3.70;;;;;;;24.82;45.85;99687.59;10380920;28;20228;-93
2023/06/19 07:23:14;;;;;;;4.88;3.35;;;;;;;25.07;45.83;99664.72;10365368;28;20712;-93
2023/06/19 07:28:16;;;;;;;6.18;3.75;;;;;;;25.22;45.61;99699.41;10379708;28;20256;-92
2023/06/19 07:33:18;;;;;;;6.47;3.83;;;;;;;24.70;46.26;99707.09;10379471;28;20742;-93
2023/06/19 07:38:19;;;;;;;4.28;3.83;;;;;;;24.87;46.50;99693.03;10363001;28;20300;-92
2023/06/19 07:43:24;;;;;;;3.90;3.60;;;;;;;25.49;45.54;99668.81;10378426;28;20237;-92
2023/06/19 07:48:26;;;;;;;5.72;3.70;;;;;;;24.64;46.06;99724.59;10363498;28;20282;-91
2023/06/19 07:53:28;;;;;;;4.38;3.70;;;;;;;25.19;46.28;99681.59;10361288;28;20283;-95
2023/06/19 07:58:30;;;;;;;5.30;4.20;;;;;;;25.21;46.45;99684.09;10360290;28;20707;-93
2023/06/19 08:03:34;;;;;;;4.80;4.00;;;;;;;25.58;45.03;99694.44;10377872;28;20237;-93
2023/06/19 08:08:37;;;;;;;5.50;4.43;;;;;;;25.85;44.25;99706.84;10375735;28;20229;-92
2023/06/19 08:13:38;;;;;;;4.65;3.88;;;;;;;25.16;45.83;99673.16;10383228;28;20241;-93
2023/06/19 08:18:42;;;;;;;5.28;4.50;;;;;;;25.47;45.41;99704.69;10377840;28;20217;-94
2023/06/19 08:23:44;;;;;;;5.00;4.50;;;;;;;25.46;45.39;99694.81;10377178;28;20230;-93
2023/06/19 08:28:46;;;;;;;5.82;4.60;;;;;;;26.33;43.43;99690.44;10367150;28;20264;-91
2023/06/19 08:33:48;;;;;;;5.10;4.60;;;;;;;25.48;44.67;99706.31;10380907;28;20568;-92
2023/06/19 08:38:53;;;;;;;4.72;4.32;;;;;;;24.10;47.12;99723.38;10328579;28;20259;-90
2023/06/19 08:43:58;;;;;;;5.38;4.85;;;;;;;24.54;47.00;99715.34;10376453;28;20328;-92
2023/06/19 08:49:00;;;;;;;4.57;4.18;;;;;;;23.85;47.34;99725.06;10374385;28;20303;-91
2023/06/19 08:54:05;;;;;;;4.95;3.83;;;;;;;25.45;44.09;99720.56;10346761;28;20247;-89
2023/06/19 08:59:12;;;;;;;5.88;3.95;;;;;;;26.89;43.27;99664.19;10349588;28;20241;-90
2023/06/19 09:04:14;;;;;;;6.63;4.82;;;;;;;24.45;47.63;99691.59;10358978;28;20242;-88
2023/06/19 09:09:16;;;;;;;4.60;4.10;;;;;;;25.70;45.45;99674.88;10338995;28;20227;-89
2023/06/19 09:14:23;;;;;;;5.13;4.60;;;;;;;25.56;44.88;99704.06;10362582;28;20225;-89
2023/06/19 09:19:25;;;;;;;4.30;3.90;;;;;;;27.38;42.28;99655.72;10336979;28;20214;-89
2023/06/19 09:24:34;;;;;;;4.60;4.20;;;;;;;27.87;42.09;99648.84;10360580;28;20295;-90
2023/06/19 09:29:38;;;;;;;4.82;4.35;;;;;;;27.61;42.30;99678.69;10356437;28;20229;-89
2023/06/19 09:34:40;;;;;;;4.40;4.05;;;;;;;26.88;42.89;99670.78;10335318;28;20617;-90
2023/06/19 09:39:42;;;;;;;4.85;4.13;;;;;;;26.97;42.24;99679.16;10341415;28;20315;-90
2023/06/19 09:44:47;;;;;;;4.72;4.22;;;;;;;27.05;42.46;99683.97;10353255;28;20240;-91
2023/06/19 09:50:00;;;;;;;5.20;4.65;;;;;;;25.99;43.63;99701.47;10353600;28;20212;-90
2023/06/19 09:55:31;;;;;;;6.80;4.18;;;;;;;28.04;40.91;99657.28;10339678;28;20621;-89
2023/06/19 10:01:04;;;;;;;4.43;4.03;;;;;;;27.41;42.30;99622.16;10348391;28;20326;-90
2023/06/19 10:06:20;;;;;;;6.72;4.70;;;;;;;29.69;39.15;99612.16;10361050;28;20705;-90
2023/06/19 10:11:24;;;;;;;5.50;4.70;;;;;;;26.99;43.10;99670.63;10354998;28;20201;-90
2023/06/19 10:16:26;;;;;;;5.18;4.68;;;;;;;27.82;42.34;99629.69;10362058;28;20232;-90
2023/06/19 10:21:53;;;;;;;4.95;4.45;;;;;;;28.33;40.62;99636.09;10343758;28;20301;-90
2023/06/19 10:27:02;;;;;;;6.07;4.40;;;;;;;28.75;40.37;99621.13;10340138;28;20562;-90
2023/06/19 10:32:04;;;;;;;6.50;4.55;;;;;;;28.72;40.51;99637.47;10346797;28;20697;-90
2023/06/19 10:37:06;;;;;;;5.07;4.57;;;;;;;27.11;42.30;99635.31;10349811;28;20236;-90
2023/06/19 10:42:11;;;;;;;4.38;3.97;;;;;;;26.87;43.12;99596.97;10349685;28;20236;-90
2023/06/19 10:47:15;;;;;;;5.05;4.28;;;;;;;27.96;41.14;99596.69;10338043;28;20221;-90
2023/06/19 10:52:19;;;;;;;4.90;4.40;;;;;;;29.84;39.39;99586.94;10336644;28;20253;-91
2023/06/19 10:57:30;;;;;;;5.13;4.28;;;;;;;30.19;38.23;99589.00;10355363;28;20665;-91
2023/06/19 11:06:24;;;;;;;5.40;4.35;;;;;;;25.65;44.66;99565.34;10417902;28;21251;-66
2023/06/19 11:11:40;;;;;;;4.75;4.22;;;;;;;26.66;42.87;99569.00;10411848;28;20267;-68
2023/06/19 11:16:44;;;;;;;4.60;3.70;;;;;;;28.46;40.79;99549.13;10408513;28;20218;-65
2023/06/19 11:21:51;;;;;;;5.00;4.50;;;;;;;27.53;41.64;99553.81;10414352;28;20230;-68
2023/06/19 11:26:54;;;;;;;4.25;3.55;;;;;;;26.97;42.18;99577.56;10418917;28;20204;-67
2023/06/19 11:32:13;;;;;;;4.15;3.75;;;;;;;27.75;40.91;99574.28;10410423;28;20228;-65
2023/06/19 11:37:17;;;;;;;4.20;3.72;;;;;;;27.56;40.77;99558.69;10413839;28;20269;-68
2023/06/19 11:42:19;;;;;;;4.63;3.80;;;;;;;28.02;40.10;99584.44;10419776;28;20231;-66
2023/06/19 11:47:22;;;;;;;4.00;3.60;;;;;;;27.23;40.56;99580.75;10420862;28;20761;-66
2023/06/19 11:52:24;;;;;;;3.58;3.28;;;;;;;25.57;42.84;99583.22;10419694;28;20292;-66
2023/06/19 11:57:26;;;;;;;3.90;3.60;;;;;;;26.72;41.28;99587.00;10406189;28;20237;-66
2023/06/19 12:02:28;;;;;;;4.38;3.45;;;;;;;27.00;40.78;99581.66;10408361;28;20311;-66
2023/06/19 12:07:30;;;;;;;4.63;3.60;;;;;;;27.94;40.65;99546.72;10416157;28;20225;-69
2023/06/19 12:12:32;;;;;;;5.47;3.70;;;;;;;27.34;40.75;99562.13;10409841;28;20287;-69
2023/06/19 12:17:34;;;;;;;3.78;3.47;;;;;;;27.80;40.14;99541.19;10385047;28;20739;-67
2023/06/19 12:22:36;;;;;;;4.53;3.42;;;;;;;29.32;38.35;99521.41;10383205;28;20221;-67
2023/06/19 12:27:38;;;;;;;4.28;3.78;;;;;;;26.57;41.11;99549.66;10382050;28;20262;-68
2023/06/19 12:32:40;;;;;;;4.10;3.58;;;;;;;28.69;39.81;99522.47;10383440;28;20216;-68
2023/06/19 12:37:42;;;;;;;4.10;3.70;;;;;;;26.45;41.21;99552.88;10381032;28;20237;-68
2023/06/19 12:42:44;;;;;;;4.82;4.10;;;;;;;27.38;40.60;99532.94;10379261;28;20229;-67
2023/06/19 12:47:46;;;;;;;3.95;3.33;;;;;;;27.41;40.31;99542.50;10379040;28;20233;-68
2023/06/19 12:52:48;;;;;;;4.72;3.63;;;;;;;27.28;40.41;99533.94;10382805;28;20209;-68
2023/06/19 12:57:49;;;;;;;4.97;3.47;;;;;;;28.88;38.66;99511.25;10383345;28;20261;-67
2023/06/19 13:02:51;;;;;;;4.07;3.22;;;;;;;27.91;39.94;99542.63;10379931;28;20249;-67
2023/06/19 13:07:53;;;;;;;4.15;3.75;;;;;;;27.66;40.38;99536.50;10383347;28;20235;-68
2023/06/19 13:12:58;;;;;;;3.95;3.58;;;;;;;27.87;39.64;99533.38;10378500;28;20246;-68
2023/06/19 13:18:00;;;;;;;4.10;3.67;;;;;;;28.57;39.20;99517.50;10371844;28;20232;-67
2023/06/19 13:23:01;;;;;;;4.15;3.50;;;;;;;28.27;39.64;99508.03;10382331;28;20240;-66
2023/06/19 13:28:03;;;;;;;4.22;3.78;;;;;;;27.55;40.23;99502.13;10385986;28;20650;-67
2023/06/19 13:33:05;;;;;;;4.00;3.60;;;;;;;27.62;40.00;99507.22;10380815;28;20319;-67
2023/06/19 13:38:07;;;;;;;4.30;3.42;;;;;;;28.59;38.58;99484.97;10380430;28;20235;-68
2023/06/19 13:43:09;;;;;;;3.78;3.47;;;;;;;28.62;38.42;99502.81;10388539;28;20226;-68
2023/06/19 13:48:11;;;;;;;3.85;3.40;;;;;;;28.62;38.55;99484.34;10384189;28;20666;-67
2023/06/19 13:53:13;;;;;;;3.63;3.33;;;;;;;28.59;39.41;99484.97;10381298;28;20208;-65
2023/06/19 13:58:14;;;;;;;4.72;3.42;;;;;;;27.46;40.23;99479.22;10370379;28;20555;-68
2023/06/19 14:03:16;;;;;;;4.30;3.90;;;;;;;28.58;38.62;99481.41;10384912;28;20362;-66
2023/06/19 14:08:18;;;;;;;4.55;3.63;;;;;;;28.76;38.55;99459.50;10380373;28;20310;-68
2023/06/19 14:13:20;;;;;;;3.92;3.63;;;;;;;29.04;38.49;99473.13;10377092;28;20205;-65
2023/06/19 14:18:22;;;;;;;3.70;3.28;;;;;;;30.21;37.13;99421.19;10386469;28;20307;-66
2023/06/19 14:23:23;;;;;;;3.88;3.40;;;;;;;28.66;38.00;99474.38;10384153;28;20320;-65
2023/06/19 14:28:25;;;;;;;4.13;3.42;;;;;;;28.80;37.74;99463.28;10382841;28;20332;-65
2023/06/19 14:33:27;;;;;;;4.40;3.90;;;;;;;29.57;38.11;99435.53;10385461;28;20275;-66
2023/06/19 14:38:31;;;;;;;3.92;3.30;;;;;;;28.15;39.61;99428.81;10385268;28;20279;-66
2023/06/19 14:43:34;;;;;;;4.00;3.45;;;;;;;27.78;39.32;99461.00;10391537;28;20224;-66
2023/06/19 14:48:36;;;;;;;3.85;3.47;;;;;;;28.57;38.41;99438.50;10374081;28;20298;-68
2023/06/19 14:53:38;;;;;;;3.63;3.15;;;;;;;27.16;40.69;99439.41;10383620;28;20295;-68
2023/06/19 14:58:39;;;;;;;5.28;3.92;;;;;;;26.64;40.99;99456.00;10371456;28;20866;-66
2023/06/19 15:05:22;;;;;;;3.72;3.42;;;;;;;25.39;43.78;99401.31;10446866;28;20862;-66
2023/06/19 15:10:23;;;;;;;6.95;4.22;;;;;;;25.31;44.48;99410.19;10421674;28;20227;-66
2023/06/19 15:15:26;;;;;;;6.32;3.53;;;;;;;25.50;44.42;99414.88;10424655;28;20381;-67
2023/06/19 15:20:27;;;;;;;3.90;3.58;;;;;;;24.86;44.70;99439.66;10425556;28;20278;-66
2023/06/19 15:25:29;;;;;;;4.55;3.70;;;;;;;25.42;44.41;99419.91;10425356;28;20665;-65
2023/06/19 15:30:31;;;;;;;4.60;3.78;;;;;;;26.46;42.90;99425.56;10422847;28;20246;-66
2023/06/19 15:35:32;;;;;;;4.38;3.97;;;;;;;25.86;43.74;99419.88;10425451;28;20623;-66
2023/06/19 15:40:34;;;;;;;3.97;3.47;;;;;;;27.68;41.37;99421.59;10416074;28;20320;-66
2023/06/19 15:45:36;;;;;;;3.60;3.30;;;;;;;27.69;40.25;99423.22;10423273;28;20749;-67
2023/06/19 15:50:39;;;;;;;4.25;3.85;;;;;;;28.11;39.62;99416.81;10416986;28;20267;-67
2023/06/19 15:55:41;;;;;;;3.75;3.45;;;;;;;26.98;40.30;99439.22;10414129;28;20675;-66
2023/06/19 16:06:13;;;;;;;3.75;3.35;;;;;;;27.74;39.19;99421.50;10449158;28;20243;-42
2023/06/19 16:11:15;;;;;;;4.95;3.67;;;;;;;28.46;39.30;99395.88;10467980;28;20204;-41
2023/06/19 16:16:17;;;;;;;3.83;3.42;;;;;;;26.55;41.76;99410.06;10423005;28;20228;-39
2023/06/19 16:21:18;;;;;;;3.95;3.63;;;;;;;27.45;40.78;99387.75;10442095;28;20251;-42
2023/06/19 16:26:20;;;;;;;4.22;3.53;;;;;;;26.18;43.18;99419.13;10436720;28;20281;-41
2023/06/19 16:31:22;;;;;;;4.00;3.60;;;;;;;25.43;44.79;99401.56;10436935;28;20250;-42
2023/06/19 16:36:24;;;;;;;4.53;4.13;;;;;;;26.36;43.50;99379.09;10430489;28;20286;-42
2023/06/19 16:41:26;;;;;;;3.95;3.60;;;;;;;26.44;43.31;99381.16;10439905;28;20782;-40
2023/06/19 16:46:27;;;;;;;5.13;3.60;;;;;;;26.56;42.26;99402.63;10434806;28;20311;-40
2023/06/19 16:51:29;;;;;;;4.00;3.38;;;;;;;27.74;40.70;99380.28;10425983;28;20204;-41
2023/06/19 16:56:31;;;;;;;4.47;3.45;;;;;;;26.01;43.44;99403.22;10435339;28;20321;-41
2023/06/19 17:01:33;;;;;;;5.03;3.72;;;;;;;26.58;42.69;99403.13;10427590;28;20263;-40
2023/06/19 17:06:35;;;;;;;3.90;3.50;;;;;;;27.75;40.79;99374.47;10426904;28;20228;-41
2023/06/19 17:11:37;;;;;;;4.78;4.30;;;;;;;26.87;42.07;99400.16;10432186;28;20209;-42
2023/06/19 17:16:43;;;;;;;4.05;3.65;;;;;;;27.47;41.45;99382.75;10433957;28;20228;-41
2023/06/19 17:21:45;;;;;;;3.75;3.33;;;;;;;26.68;41.83;99405.69;10428624;28;20573;-42
2023/06/19 17:26:46;;;;;;;4.45;3.97;;;;;;;28.71;39.94;99357.81;10425330;28;20235;-42
2023/06/19 17:31:48;;;;;;;3.97;3.58;;;;;;;27.09;41.45;99417.84;10437344;28;20347;-41
2023/06/19 17:36:50;;;;;;;4.20;3.80;;;;;;;29.09;39.46;99365.56;10433815;28;20260;-41
2023/06/19 17:41:52;;;;;;;6.60;4.20;;;;;;;27.85;40.84;99390.72;10431728;28;20609;-42
2023/06/19 17:46:54;;;;;;;5.40;3.90;;;;;;;27.75;40.53;99399.22;10426589;28;20277;-40
2023/06/19 17:51:55;;;;;;;4.03;3.63;;;;;;;27.85;39.96;99409.97;10425459;28;20212;-40
2023/06/19 17:56:57;;;;;;;4.05;3.70;;;;;;;29.55;38.32;99355.94;10433515;28;20305;-42
2023/06/19 18:01:59;;;;;;;6.80;3.60;;;;;;;29.71;38.23;99370.09;10429724;28;20721;-41
2023/06/19 18:07:01;;;;;;;4.57;3.90;;;;;;;28.19;39.84;99377.59;10435769;28;20212;-43
2023/06/19 18:12:03;;;;;;;4.53;3.47;;;;;;;29.44;39.04;99343.63;10424704;28;20303;-41
2023/06/19 18:17:05;;;;;;;4.30;3.80;;;;;;;28.51;39.82;99387.50;10437616;28;20234;-42
2023/06/19 18:22:07;;;;;;;5.65;3.83;;;;;;;29.40;39.03;99357.22;10429269;28;20228;-42
2023/06/19 18:27:09;;;;;;;4.25;3.90;;;;;;;28.19;40.15;99394.09;10434246;28;20343;-41
2023/06/19 18:32:11;;;;;;;4.78;3.72;;;;;;;28.78;39.46;99361.75;10431474;28;20558;-41
2023/06/19 18:37:12;;;;;;;5.63;4.15;;;;;;;27.60;40.99;99389.34;10433131;28;20231;-42
2023/06/19 18:42:14;;;;;;;4.53;4.05;;;;;;;28.91;39.55;99359.19;10431136;28;20313;-41
2023/06/19 18:47:16;;;;;;;5.32;4.07;;;;;;;28.63;39.59;99356.63;10428241;28;20798;-42
2023/06/19 18:52:18;;;;;;;6.00;4.07;;;;;;;29.28;39.21;99344.06;10426192;28;20232;-43
2023/06/19 18:57:22;;;;;;;6.68;3.70;;;;;;;27.86;40.47;99370.34;10423874;28;20421;-42
2023/06/19 19:02:25;;;;;;;4.60;4.00;;;;;;;27.30;41.61;99355.13;10420605;28;20237;-41
2023/06/19 19:07:27;;;;;;;4.72;3.80;;;;;;;27.00;42.21;99367.53;10426438;28;20239;-42
2023/06/19 19:12:29;;;;;;;4.65;3.88;;;;;;;28.01;40.80;99349.13;10426584;28;20232;-42
2023/06/19 19:17:30;;;;;;;4.22;3.83;;;;;;;27.81;41.29;99362.22;10426271;28;20208;-42
2023/06/19 19:22:33;;;;;;;4.72;4.10;;;;;;;27.46;41.68;99369.31;10418982;28;20234;-41
2023/06/19 19:27:34;;;;;;;5.20;4.55;;;;;;;27.30;41.55;99375.16;10425591;28;20235;-42
2023/06/19 19:32:36;;;;;;;5.13;4.20;;;;;;;27.86;41.25;99364.03;10420172;28;20742;-41
2023/06/19 19:37:38;;;;;;;4.65;3.90;;;;;;;28.53;39.74;99370.66;10422443;28;20219;-42
2023/06/19 19:42:39;;;;;;;4.72;3.63;;;;;;;28.01;40.26;99380.16;10429324;28;20302;-42
2023/06/19 19:47:41;;;;;;;5.00;4.40;;;;;;;28.21;39.88;99380.84;10425179;28;20209;-42
2023/06/19 19:52:43;;;;;;;4.10;3.63;;;;;;;27.62;40.71;99398.09;10431818;28;20240;-42
2023/06/19 19:57:45;;;;;;;4.10;3.47;;;;;;;26.70;41.10;99424.59;10426756;28;20215;-42
2023/06/19 20:02:46;;;;;;;4.68;4.28;;;;;;;27.65;40.15;99402.16;10434790;28;20325;-42
2023/06/19 20:07:48;;;;;;;4.10;3.72;;;;;;;27.42;40.72;99404.03;10430683;28;20204;-42
2023/06/19 20:12:50;;;;;;;4.20;3.80;;;;;;;26.83;41.33;99401.88;10429064;28;20224;-41
2023/06/19 20:17:52;;;;;;;5.03;4.05;;;;;;;26.81;41.16;99406.88;10436055;28;20219;-42
2023/06/19 20:22:56;;;;;;;4.30;3.90;;;;;;;26.39;41.99;99395.78;10431108;28;20224;-42
2023/06/19 20:27:58;;;;;;;4.47;3.97;;;;;;;27.08;40.99;99386.84;10429243;28;20209;-43
2023/06/19 20:33:09;;;;;;;5.43;4.07;;;;;;;26.20;42.01;99384.00;10432672;28;20234;-43
2023/06/19 20:38:10;;;;;;;4.78;3.78;;;;;;;26.15;42.19;99390.38;10431158;28;20216;-40
2023/06/19 20:43:13;;;;;;;4.72;4.05;;;;;;;25.39;43.63;99389.53;10438380;28;20238;-42
2023/06/19 20:48:14;;;;;;;4.40;4.00;;;;;;;25.60;43.37;99382.69;10433874;28;20216;-41
2023/06/19 20:53:16;;;;;;;5.20;4.10;;;;;;;26.15;42.43;99395.06;10434945;28;20224;-42
2023/06/19 20:58:18;;;;;;;5.45;4.40;;;;;;;25.16;43.91;99413.09;10431152;28;20296;-40
2023/06/19 21:03:20;;;;;;;4.93;4.10;;;;;;;26.70;41.48;99399.91;10434773;28;20267;-42
2023/06/19 21:08:29;;;;;;;4.53;4.13;;;;;;;25.91;42.68;99406.09;10429560;28;20201;-41
2023/06/19 21:13:31;;;;;;;4.53;4.13;;;;;;;26.81;41.50;99382.16;10433781;28;20260;-41
2023/06/19 21:18:33;;;;;;;6.05;4.97;;;;;;;26.46;42.33;99378.13;10431080;28;20204;-41
2023/06/19 21:23:34;;;;;;;5.22;4.13;;;;;;;26.41;41.73;99383.69;10431014;28;20236;-41
2023/06/19 21:28:36;;;;;;;7.43;4.93;;;;;;;25.70;43.18;99381.72;10438316;28;20295;-41
2023/06/19 21:33:40;;;;;;;6.25;4.53;;;;;;;25.94;43.23;99356.19;10430273;28;20318;-42
2023/06/19 21:38:41;;;;;;;6.18;4.20;;;;;;;25.76;43.89;99350.44;10424304;28;20208;-42
2023/06/19 21:43:45;;;;;;;7.20;4.53;;;;;;;26.30;42.30;99348.22;10436812;28;20240;-42
2023/06/19 21:48:47;;;;;;;5.82;4.30;;;;;;;25.93;43.05;99351.81;10430990;28;20208;-41
2023/06/19 21:53:49;;;;;;;4.97;4.50;;;;;;;24.33;45.54;99370.13;10431994;28;20706;-44
2023/06/19 21:58:50;;;;;;;5.30;4.80;;;;;;;26.14;43.25;99328.44;10436134;28;20587;-41
2023/06/19 22:03:52;;;;;;;5.35;4.85;;;;;;;25.25;44.33;99362.91;10429571;28;20662;-42
2023/06/19 22:08:59;;;;;;;7.75;5.40;;;;;;;24.26;45.88;99374.25;10427893;28;20216;-41
2023/06/19 22:14:01;;;;;;;5.55;4.85;;;;;;;24.76;45.54;99344.81;10427167;28;20220;-41
2023/06/19 22:19:03;;;;;;;5.28;4.78;;;;;;;23.35;48.68;99369.91;10433544;28;21543;-41
2023/06/19 22:24:05;;;;;;;5.97;5.13;;;;;;;23.43;48.75;99354.84;10426243;28;20987;-42
2023/06/19 22:29:07;;;;;;;6.65;5.35;;;;;;;21.58;53.09;99347.66;10422167;28;20215;-41
2023/06/19 22:34:10;;;;;;;5.72;5.22;;;;;;;21.77;52.67;99353.41;10434419;28;20232;-41
2023/06/19 22:39:12;;;;;;;6.22;5.63;;;;;;;21.90;52.43;99345.81;10442777;28;20634;-41
2023/06/19 22:44:13;;;;;;;5.75;5.22;;;;;;;21.96;52.12;99370.09;10427371;28;20814;-42
2023/06/19 22:49:15;;;;;;;5.70;5.07;;;;;;;21.99;53.25;99366.00;10425505;28;20216;-42
2023/06/19 22:54:19;;;;;;;6.20;5.60;;;;;;;21.55;54.84;99352.84;10422864;28;20212;-42
2023/06/19 22:59:21;;;;;;;6.13;5.50;;;;;;;21.28;54.95;99372.03;10420867;28;20678;-40
2023/06/19 23:04:23;;;;;;;7.18;5.93;;;;;;;21.78;54.56;99374.13;10429183;28;20240;-38
2023/06/19 23:09:29;;;;;;;8.30;6.05;;;;;;;20.53;57.52;99386.56;10429957;28;20238;-36
2023/06/19 23:14:31;;;;;;;7.60;6.15;;;;;;;20.66;57.93;99375.22;10434413;28;20223;-37
2023/06/19 23:19:33;;;;;;;7.75;6.07;;;;;;;20.68;58.99;99378.50;10419731;28;20264;-38
2023/06/19 23:24:35;;;;;;;7.70;6.85;;;;;;;20.29;60.39;99411.38;10433664;28;21014;-39
2023/06/19 23:29:36;;;;;;;8.90;7.45;;;;;;;20.36;61.26;99367.66;10435259;28;20216;-36
2023/06/19 23:34:38;;;;;;;7.72;6.97;;;;;;;20.78;59.40;99401.41;10436162;28;20255;-39
2023/06/19 23:39:40;;;;;;;7.82;7.03;;;;;;;20.18;60.61;99425.94;10434228;28;20204;-38